Time;durP1;ratioP1;P1;durP2;ratioP2;P2;SDS_P1;SDS_P2;PMS_P1;PMS_P2;Temp;Humidity;BMP_temperature;BMP_pressure;BME280_temperature;BME280_humidity;BME280_pressure;Samples;Min_cycle;Max_cycle;Signal;HPM_P1;HPM_P2
2023/06/13 00:01:48;;;;;;;8.30;6.00;;;;;;;17.06;60.57;100058.52;105609;1251;61198;-72
2023/06/13 00:04:25;;;;;;;8.20;5.80;;;;;;;17.07;60.55;100055.75;105958;1256;66042;-71
2023/06/13 00:06:54;;;;;;;9.80;6.30;;;;;;;17.08;60.51;100059.92;105726;1256;61330;-72
2023/06/13 00:09:22;;;;;;;9.40;5.60;;;;;;;17.09;60.43;100056.64;105764;1256;62551;-72
2023/06/13 00:11:49;;;;;;;7.40;5.50;;;;;;;17.09;60.22;100058.73;105958;1251;61447;-72
2023/06/13 00:14:20;;;;;;;9.00;5.60;;;;;;;17.09;60.10;100059.80;106219;1251;61151;-69
2023/06/13 00:16:47;;;;;;;9.70;5.50;;;;;;;17.10;60.00;100061.46;105722;1256;65844;-70
2023/06/13 00:19:14;;;;;;;11.10;5.80;;;;;;;17.08;59.96;100055.06;105706;1251;61240;-74
2023/06/13 00:21:41;;;;;;;8.90;5.40;;;;;;;17.08;59.95;100053.52;105888;1251;63809;-73
2023/06/13 00:24:08;;;;;;;9.60;5.90;;;;;;;17.10;59.87;100048.46;105620;1254;63220;-74
2023/06/13 00:26:35;;;;;;;7.70;5.60;;;;;;;17.12;59.77;100050.05;105689;1253;61254;-74
2023/06/13 00:29:02;;;;;;;10.50;5.70;;;;;;;17.12;59.73;100050.55;106055;1251;65981;-75
2023/06/13 00:31:31;;;;;;;8.80;5.50;;;;;;;17.12;59.59;100048.01;105901;1251;61330;-72
2023/06/13 00:33:59;;;;;;;9.40;5.30;;;;;;;17.13;59.51;100049.95;105612;1252;63993;-73
2023/06/13 00:36:27;;;;;;;11.00;5.50;;;;;;;17.15;59.40;100053.73;105870;1251;61304;-72
2023/06/13 00:38:57;;;;;;;7.00;4.70;;;;;;;17.17;59.29;100053.02;106030;1256;61214;-73
2023/06/13 00:41:24;;;;;;;8.90;5.20;;;;;;;17.17;59.20;100053.35;105793;1257;67262;-73
2023/06/13 00:43:51;;;;;;;8.50;5.50;;;;;;;17.18;59.14;100051.30;105800;1256;61330;-73
2023/06/13 00:46:24;;;;;;;9.30;4.90;;;;;;;17.18;59.12;100050.43;105576;1257;64031;-73
2023/06/13 00:48:51;;;;;;;6.20;4.80;;;;;;;17.18;58.95;100047.23;105893;1251;61406;-74
2023/06/13 00:51:20;;;;;;;7.80;5.10;;;;;;;17.16;59.03;100035.97;105583;1253;61136;-74
2023/06/13 00:53:48;;;;;;;7.40;5.00;;;;;;;17.15;58.82;100027.61;105782;1257;66039;-74
2023/06/13 00:56:15;;;;;;;8.20;4.60;;;;;;;17.13;58.79;100025.55;105874;1253;61229;-74
2023/06/13 00:58:41;;;;;;;7.30;4.90;;;;;;;17.12;58.79;100025.30;105989;1251;63797;-72
2023/06/13 01:01:09;;;;;;;10.20;5.10;;;;;;;17.13;58.71;100028.92;105975;1253;61218;-78
2023/06/13 01:03:39;;;;;;;7.60;5.00;;;;;;;17.13;58.75;100028.89;105909;1253;61216;-74
2023/06/13 01:06:06;;;;;;;8.00;5.10;;;;;;;17.12;58.94;100033.80;105703;1252;65864;-74
2023/06/13 01:08:37;;;;;;;9.90;4.80;;;;;;;17.12;58.84;100033.34;106025;1251;61324;-75
2023/06/13 01:11:25;;;;;;;9.10;4.60;;;;;;;17.12;58.81;100026.13;106131;1256;62805;-74
2023/06/13 01:13:57;;;;;;;9.80;4.90;;;;;;;17.11;58.63;100025.89;105981;1251;61310;-72
2023/06/13 01:16:37;;;;;;;8.90;4.90;;;;;;;17.10;58.52;100027.45;105887;1253;61417;-72
2023/06/13 01:19:11;;;;;;;7.80;4.50;;;;;;;17.11;58.52;100037.70;105948;1257;65968;-72
2023/06/13 01:21:38;;;;;;;7.70;4.70;;;;;;;17.10;58.39;100038.31;105888;1251;61494;-73
2023/06/13 01:24:10;;;;;;;7.50;5.10;;;;;;;17.10;58.48;100038.48;105684;1251;63696;-72
2023/06/13 01:26:56;;;;;;;7.20;4.40;;;;;;;17.10;58.46;100034.79;105532;1254;61382;-74
2023/06/13 01:29:23;;;;;;;6.10;4.30;;;;;;;17.09;58.33;100026.88;105757;1251;61337;-74
2023/06/13 01:31:52;;;;;;;7.80;4.50;;;;;;;17.08;58.21;100030.91;105692;1254;64528;-73
2023/06/13 01:34:19;;;;;;;7.60;4.50;;;;;;;17.06;58.34;100038.35;105712;1258;61446;-73
2023/06/13 01:36:45;;;;;;;11.90;5.00;;;;;;;17.05;58.37;100043.45;106000;1256;63986;-73
2023/06/13 01:39:12;;;;;;;8.40;4.80;;;;;;;17.05;58.25;100048.16;106151;1251;61250;-73
2023/06/13 01:41:41;;;;;;;13.60;4.80;;;;;;;17.06;58.25;100045.05;105991;1253;61340;-74
2023/06/13 01:44:08;;;;;;;9.90;4.30;;;;;;;17.06;58.29;100036.44;105929;1252;65766;-72
2023/06/13 01:47:05;;;;;;;6.30;4.20;;;;;;;17.06;58.20;100035.77;105728;1251;61324;-74
2023/06/13 01:49:53;;;;;;;10.00;4.50;;;;;;;17.05;58.17;100033.02;105824;1253;63920;-75
2023/06/13 01:52:46;;;;;;;6.10;4.20;;;;;;;17.05;58.20;100032.68;105949;1251;61178;-74
2023/06/13 01:55:26;;;;;;;6.40;3.90;;;;;;;17.06;58.12;100035.11;105364;1253;61296;-75
2023/06/13 01:58:00;;;;;;;7.10;3.80;;;;;;;17.06;58.17;100038.12;105591;1251;66054;-75
2023/06/13 02:00:27;;;;;;;11.30;4.90;;;;;;;17.05;58.18;100041.55;105730;1256;61279;-76
2023/06/13 02:02:55;;;;;;;8.50;4.20;;;;;;;17.05;58.14;100039.95;105600;1253;63998;-76
2023/06/13 02:05:25;;;;;;;9.30;4.50;;;;;;;17.06;58.17;100038.04;105629;1253;61406;-73
2023/06/13 02:07:53;;;;;;;8.10;4.40;;;;;;;17.06;58.16;100033.91;105712;1251;61238;-73
2023/06/13 02:10:20;;;;;;;7.60;4.30;;;;;;;17.06;58.07;100031.80;105696;1259;66121;-75
2023/06/13 02:12:46;;;;;;;5.30;3.80;;;;;;;17.06;57.90;100036.14;105932;1253;61347;-75
2023/06/13 02:15:13;;;;;;;7.40;4.30;;;;;;;17.05;57.80;100038.02;105876;1256;63815;-75
2023/06/13 02:17:40;;;;;;;6.10;4.10;;;;;;;17.05;57.91;100039.95;105995;1251;61330;-76
2023/06/13 02:20:08;;;;;;;9.80;4.30;;;;;;;17.06;57.89;100039.52;105816;1251;61229;-75
2023/06/13 02:22:35;;;;;;;7.40;4.40;;;;;;;17.07;57.82;100040.11;106416;1252;66073;-75
2023/06/13 02:25:04;;;;;;;10.10;4.00;;;;;;;17.06;57.88;100041.38;106066;1256;61221;-75
2023/06/13 02:27:31;;;;;;;6.10;4.30;;;;;;;17.05;57.85;100043.35;105907;1256;63946;-73
2023/06/13 02:29:58;;;;;;;11.80;4.60;;;;;;;17.04;57.87;100043.96;105981;1251;61334;-72
2023/06/13 02:32:29;;;;;;;12.30;4.30;;;;;;;17.03;58.05;100042.47;105810;1252;61334;-72
2023/06/13 02:34:58;;;;;;;6.20;4.20;;;;;;;17.03;58.22;100046.41;106402;1255;66063;-73
2023/06/13 02:37:24;;;;;;;7.20;4.50;;;;;;;17.02;58.27;100043.11;106000;1253;61271;-75
2023/06/13 02:39:51;;;;;;;7.80;4.10;;;;;;;17.01;58.22;100039.95;105763;1252;64046;-74
2023/06/13 02:42:18;;;;;;;7.50;4.20;;;;;;;16.98;58.13;100041.31;106635;1251;61134;-74
2023/06/13 02:44:44;;;;;;;6.40;4.10;;;;;;;16.99;58.28;100041.02;105734;1251;61253;-73
2023/06/13 02:47:11;;;;;;;6.70;4.40;;;;;;;16.98;58.27;100040.41;105983;1253;65749;-72
2023/06/13 02:49:38;;;;;;;8.10;4.30;;;;;;;16.98;58.38;100043.25;106509;1251;61276;-73
2023/06/13 02:52:05;;;;;;;6.70;4.00;;;;;;;16.99;58.28;100038.76;106026;1251;61353;-74
2023/06/13 02:54:31;;;;;;;8.20;4.00;;;;;;;16.99;58.25;100037.85;105529;1251;61189;-72
2023/06/13 02:56:58;;;;;;;5.10;4.00;;;;;;;16.99;58.20;100034.58;105820;1253;61219;-72
2023/06/13 02:59:26;;;;;;;9.40;4.20;;;;;;;17.00;58.24;100037.68;105992;1251;66032;-72
2023/06/13 03:01:53;;;;;;;6.30;4.00;;;;;;;17.00;58.04;100042.02;106051;1251;61353;-73
2023/06/13 03:04:19;;;;;;;7.00;4.20;;;;;;;16.99;57.96;100043.33;105767;1253;63860;-74
2023/06/13 03:06:46;;;;;;;8.70;4.20;;;;;;;17.00;58.15;100042.45;105840;1251;61186;-73
2023/06/13 03:09:14;;;;;;;7.10;4.10;;;;;;;17.02;58.35;100044.45;105967;1251;61302;-72
2023/06/13 03:11:40;;;;;;;6.10;3.80;;;;;;;17.00;58.47;100041.83;106352;1253;66002;-73
2023/06/13 03:14:07;;;;;;;6.00;4.10;;;;;;;16.97;58.65;100041.91;105863;1251;61261;-73
2023/06/13 03:16:38;;;;;;;6.70;4.10;;;;;;;16.96;58.69;100043.19;106506;1253;63762;-75
2023/06/13 03:19:05;;;;;;;6.90;3.80;;;;;;;16.93;58.63;100046.09;106926;1251;61128;-75
2023/06/13 03:21:32;;;;;;;6.50;4.00;;;;;;;16.94;58.55;100049.80;106106;1253;61232;-77
2023/06/13 03:23:59;;;;;;;7.00;4.00;;;;;;;16.94;58.60;100052.43;106314;1255;65933;-75
2023/06/13 03:26:28;;;;;;;5.60;3.90;;;;;;;16.94;58.57;100050.50;106078;1256;61192;-74
2023/06/13 03:28:56;;;;;;;8.70;3.70;;;;;;;16.93;58.56;100050.36;106093;1251;63888;-72
2023/06/13 03:31:24;;;;;;;7.00;4.00;;;;;;;16.94;58.54;100056.94;106295;1256;61249;-74
2023/06/13 03:33:51;;;;;;;7.50;3.70;;;;;;;16.92;58.42;100053.70;106336;1253;61277;-76
2023/06/13 03:36:18;;;;;;;6.30;3.60;;;;;;;16.92;58.32;100054.58;106091;1253;64664;-75
2023/06/13 03:38:45;;;;;;;8.40;3.80;;;;;;;16.94;58.26;100057.23;105772;1251;61234;-73
2023/06/13 03:41:12;;;;;;;7.70;4.20;;;;;;;16.95;58.30;100062.42;106096;1253;61240;-76
2023/06/13 03:43:40;;;;;;;7.00;3.40;;;;;;;16.95;58.29;100062.60;106040;1251;61157;-74
2023/06/13 03:46:07;;;;;;;4.90;3.60;;;;;;;16.95;58.18;100060.87;106420;1251;61257;-74
2023/06/13 03:48:34;;;;;;;7.00;3.50;;;;;;;16.96;58.26;100064.13;106072;1256;65983;-73
2023/06/13 03:51:01;;;;;;;4.90;3.70;;;;;;;16.97;58.38;100065.91;106284;1251;61308;-75
2023/06/13 03:53:28;;;;;;;6.40;3.50;;;;;;;16.98;58.46;100067.59;106000;1255;64149;-76
2023/06/13 03:55:55;;;;;;;5.40;3.60;;;;;;;17.00;58.53;100066.00;105920;1251;61383;-72
2023/06/13 03:58:22;;;;;;;4.80;3.60;;;;;;;17.01;58.52;100066.76;105756;1252;61244;-75
2023/06/13 04:00:50;;;;;;;7.30;3.70;;;;;;;17.01;58.44;100067.86;105956;1251;66035;-82
2023/06/13 04:03:19;;;;;;;4.80;3.40;;;;;;;17.00;58.39;100069.50;106125;1251;61269;-82
2023/06/13 04:05:49;;;;;;;6.90;3.70;;;;;;;17.00;58.33;100070.77;106659;1255;63825;-72
2023/06/13 04:08:17;;;;;;;7.40;3.40;;;;;;;17.00;58.38;100071.51;105926;1251;61222;-72
2023/06/13 04:10:43;;;;;;;4.40;3.60;;;;;;;17.00;58.44;100072.94;105734;1251;61233;-72
2023/06/13 04:13:11;;;;;;;9.10;3.80;;;;;;;16.99;58.42;100079.08;106470;1251;65793;-72
2023/06/13 04:15:38;;;;;;;5.70;3.70;;;;;;;16.99;58.51;100082.82;105969;1251;61269;-77
2023/06/13 04:18:09;;;;;;;8.20;4.00;;;;;;;16.99;58.50;100078.88;105800;1251;64543;-71
2023/06/13 04:20:36;;;;;;;6.80;3.80;;;;;;;17.00;58.51;100080.00;105847;1251;61270;-72
2023/06/13 04:23:03;;;;;;;5.70;3.60;;;;;;;17.00;58.53;100081.44;105767;1253;61227;-72
2023/06/13 04:25:30;;;;;;;4.70;3.60;;;;;;;17.00;58.75;100079.14;105750;1251;61251;-72
2023/06/13 04:27:58;;;;;;;8.10;3.90;;;;;;;17.00;58.81;100076.98;105993;1252;61247;-73
2023/06/13 04:30:25;;;;;;;5.60;3.30;;;;;;;17.01;58.73;100074.23;105726;1258;64089;-73
2023/06/13 04:32:52;;;;;;;4.90;3.70;;;;;;;17.02;58.91;100076.63;105968;1253;61241;-74
2023/06/13 04:35:22;;;;;;;8.20;3.70;;;;;;;17.02;58.90;100076.13;105771;1253;61278;-72
2023/06/13 04:37:49;;;;;;;5.10;3.60;;;;;;;17.01;58.78;100081.73;106101;1255;65935;-73
2023/06/13 04:40:16;;;;;;;8.00;3.50;;;;;;;17.00;58.69;100081.77;105868;1251;61401;-73
2023/06/13 04:42:52;;;;;;;6.70;3.70;;;;;;;17.01;58.78;100084.56;105951;1256;64294;-73
2023/06/13 04:45:20;;;;;;;5.10;3.50;;;;;;;17.01;58.94;100085.93;105667;1258;61243;-72
2023/06/13 04:47:48;;;;;;;6.50;3.50;;;;;;;17.02;59.05;100082.63;105619;1253;61234;-73
2023/06/13 04:50:26;;;;;;;7.80;3.50;;;;;;;17.02;59.06;100082.33;105914;1256;65931;-73
2023/06/13 04:52:53;;;;;;;5.40;3.40;;;;;;;17.01;59.14;100086.34;105688;1251;61256;-74
2023/06/13 04:55:22;;;;;;;8.20;4.00;;;;;;;16.99;59.22;100088.08;105811;1256;63936;-73
2023/06/13 04:57:49;;;;;;;6.90;3.90;;;;;;;16.97;59.43;100089.20;105827;1255;61210;-74
2023/06/13 05:00:16;;;;;;;5.10;3.90;;;;;;;16.98;59.52;100087.90;105923;1253;61351;-73
2023/06/13 05:02:45;;;;;;;4.50;3.70;;;;;;;16.97;59.71;100085.46;105690;1256;66026;-73
2023/06/13 05:05:16;;;;;;;8.40;3.90;;;;;;;16.96;59.90;100087.03;105877;1255;61247;-73
2023/06/13 05:07:43;;;;;;;7.70;4.00;;;;;;;16.96;60.10;100087.80;105974;1251;63845;-73
2023/06/13 05:10:10;;;;;;;5.80;4.00;;;;;;;16.96;60.17;100089.20;105987;1251;61248;-73
2023/06/13 05:12:39;;;;;;;6.00;3.60;;;;;;;16.97;60.21;100091.50;105980;1251;61347;-73
2023/06/13 05:15:06;;;;;;;7.30;4.10;;;;;;;16.98;60.43;100093.00;105826;1251;64576;-74
2023/06/13 05:17:34;;;;;;;5.80;3.80;;;;;;;16.98;60.62;100090.59;105865;1253;61427;-74
2023/06/13 05:20:01;;;;;;;6.10;4.10;;;;;;;16.97;60.74;100085.73;105817;1253;64024;-73
2023/06/13 05:22:28;;;;;;;7.20;4.00;;;;;;;16.96;61.06;100091.70;105904;1252;61157;-74
2023/06/13 05:24:59;;;;;;;6.30;3.80;;;;;;;16.98;61.20;100091.66;105934;1255;61193;-74
2023/06/13 05:27:26;;;;;;;9.10;4.10;;;;;;;17.01;61.37;100092.34;105977;1251;65956;-73
2023/06/13 05:29:53;;;;;;;7.50;4.00;;;;;;;17.03;61.48;100089.29;105783;1254;61327;-73
2023/06/13 05:32:20;;;;;;;6.80;4.00;;;;;;;17.03;61.40;100089.22;105665;1253;64062;-73
2023/06/13 05:34:47;;;;;;;6.30;4.10;;;;;;;17.05;61.52;100084.25;105775;1251;61355;-73
2023/06/13 05:37:14;;;;;;;7.80;4.50;;;;;;;17.06;61.63;100080.94;105864;1251;61327;-73
2023/06/13 05:39:41;;;;;;;5.60;4.00;;;;;;;17.06;61.52;100081.80;105862;1255;65882;-73
2023/06/13 05:42:08;;;;;;;5.90;3.70;;;;;;;17.10;61.59;100083.71;105983;1256;61324;-73
2023/06/13 05:44:35;;;;;;;8.40;4.20;;;;;;;17.15;61.55;100085.95;105966;1256;63987;-74
2023/06/13 05:47:03;;;;;;;5.30;3.60;;;;;;;17.19;61.58;100086.22;105933;1251;61198;-74
2023/06/13 05:49:29;;;;;;;7.80;3.90;;;;;;;17.22;61.55;100086.61;106037;1252;61325;-73
2023/06/13 05:51:57;;;;;;;4.70;3.80;;;;;;;17.23;61.65;100092.38;105959;1255;66176;-73
2023/06/13 05:54:23;;;;;;;6.80;4.40;;;;;;;17.26;61.66;100093.70;106079;1253;61298;-73
2023/06/13 05:56:50;;;;;;;6.50;3.80;;;;;;;17.29;61.63;100093.30;105856;1253;62868;-73
2023/06/13 05:59:17;;;;;;;7.60;3.90;;;;;;;17.30;61.67;100089.42;105728;1253;61237;-74
2023/06/13 06:01:45;;;;;;;6.10;3.80;;;;;;;17.32;61.62;100085.21;105736;1252;61136;-74
2023/06/13 06:04:12;;;;;;;7.70;4.20;;;;;;;17.30;61.42;100081.13;105996;1253;64635;-74
2023/06/13 06:06:39;;;;;;;5.30;4.00;;;;;;;17.28;61.28;100083.46;106047;1253;61244;-74
2023/06/13 06:09:05;;;;;;;5.50;3.90;;;;;;;17.28;61.48;100087.20;105975;1251;61241;-74
2023/06/13 06:11:33;;;;;;;7.70;4.40;;;;;;;17.29;61.63;100088.16;105852;1253;61246;-74
2023/06/13 06:14:01;;;;;;;4.60;3.70;;;;;;;17.30;61.55;100087.36;105824;1251;61286;-73
2023/06/13 06:16:28;;;;;;;7.20;4.00;;;;;;;17.30;61.52;100085.89;105834;1255;65776;-73
2023/06/13 06:18:55;;;;;;;11.60;3.60;;;;;;;17.32;61.52;100088.14;105606;1258;61422;-73
2023/06/13 06:21:22;;;;;;;8.50;4.70;;;;;;;17.34;61.51;100084.02;105720;1253;63851;-73
2023/06/13 06:23:49;;;;;;;5.70;3.80;;;;;;;17.36;61.48;100077.44;105786;1252;61333;-74
2023/06/13 06:26:15;;;;;;;6.60;4.50;;;;;;;17.39;61.39;100073.88;105803;1253;62544;-73
2023/06/13 06:28:45;;;;;;;7.30;4.20;;;;;;;17.43;61.32;100074.81;105811;1256;65702;-73
2023/06/13 06:31:12;;;;;;;8.20;4.10;;;;;;;17.48;61.29;100074.63;105831;1251;61349;-73
2023/06/13 06:33:39;;;;;;;8.60;4.50;;;;;;;17.54;61.22;100072.36;105684;1255;63883;-73
2023/06/13 06:36:06;;;;;;;8.50;4.10;;;;;;;17.61;61.25;100073.10;105795;1253;61270;-73
2023/06/13 06:38:32;;;;;;;6.90;3.90;;;;;;;17.70;61.27;100065.53;105965;1253;61135;-73
2023/06/13 06:40:59;;;;;;;7.50;3.90;;;;;;;17.76;61.11;100062.00;105961;1254;66023;-74
2023/06/13 06:43:26;;;;;;;7.80;4.60;;;;;;;17.83;61.02;100063.93;105975;1253;61219;-74
2023/06/13 06:45:55;;;;;;;6.50;3.90;;;;;;;17.89;60.65;100061.93;105725;1259;62745;-74
2023/06/13 06:48:21;;;;;;;6.10;4.00;;;;;;;17.94;60.45;100060.75;105839;1253;61294;-76
2023/06/13 06:50:48;;;;;;;5.00;3.90;;;;;;;17.99;60.30;100060.72;105779;1252;61222;-75
2023/06/13 06:53:15;;;;;;;6.30;4.20;;;;;;;18.03;60.08;100058.56;105616;1258;65703;-74
2023/06/13 06:55:42;;;;;;;6.50;4.20;;;;;;;18.08;60.04;100061.37;105961;1256;61276;-75
2023/06/13 06:58:10;;;;;;;4.60;4.00;;;;;;;18.12;60.04;100064.94;105590;1251;204637;-75
2023/06/13 07:00:38;;;;;;;5.50;4.00;;;;;;;18.18;59.84;100064.30;105876;1252;61151;-71
2023/06/13 07:03:07;;;;;;;6.30;4.10;;;;;;;18.24;59.93;100065.89;106379;1252;61253;-72
2023/06/13 07:05:35;;;;;;;10.20;3.80;;;;;;;18.27;59.60;100061.19;105765;1256;65889;-69
2023/06/13 07:08:02;;;;;;;6.10;3.80;;;;;;;18.32;59.52;100060.95;105705;1253;61259;-70
2023/06/13 07:10:29;;;;;;;6.40;3.90;;;;;;;18.40;59.48;100066.01;105728;1251;63932;-70
2023/06/13 07:12:56;;;;;;;6.70;4.10;;;;;;;18.46;59.49;100063.95;106429;1256;61160;-70
2023/06/13 07:15:23;;;;;;;7.30;3.90;;;;;;;18.53;59.31;100065.66;105792;1254;61247;-70
2023/06/13 07:17:51;;;;;;;5.60;3.90;;;;;;;18.56;59.12;100064.05;105904;1256;65985;-72
2023/06/13 07:20:20;;;;;;;6.10;4.20;;;;;;;18.61;59.00;100064.70;105716;1253;61379;-71
2023/06/13 07:22:46;;;;;;;6.90;3.50;;;;;;;18.68;58.97;100063.74;105961;1256;63849;-71
2023/06/13 07:25:13;;;;;;;7.70;4.20;;;;;;;18.78;58.83;100063.28;105948;1251;61138;-71
2023/06/13 07:27:42;;;;;;;8.20;4.00;;;;;;;18.85;58.74;100068.46;105775;1253;61347;-71
2023/06/13 07:30:08;;;;;;;8.40;4.00;;;;;;;18.92;58.42;100067.45;105780;1258;65823;-71
2023/06/13 07:32:36;;;;;;;6.90;3.90;;;;;;;19.00;58.30;100069.95;105929;1250;61782;-69
2023/06/13 07:35:03;;;;;;;8.90;3.80;;;;;;;19.08;58.14;100068.75;105829;1256;63976;-71
2023/06/13 07:37:33;;;;;;;7.00;4.30;;;;;;;19.15;58.11;100064.28;105697;1259;61212;-72
2023/06/13 07:40:02;;;;;;;7.10;4.00;;;;;;;19.25;57.99;100064.00;105679;1253;61340;-71
2023/06/13 07:42:30;;;;;;;6.30;3.60;;;;;;;19.34;57.73;100065.60;105812;1253;64760;-74
2023/06/13 07:44:57;;;;;;;8.60;3.90;;;;;;;19.45;57.69;100065.33;105849;1251;61324;-78
2023/06/13 07:47:24;;;;;;;7.90;4.30;;;;;;;19.56;57.35;100065.12;105851;1256;62833;-81
2023/06/13 07:49:51;;;;;;;5.00;3.90;;;;;;;19.64;57.28;100065.15;105609;1261;61442;-79
2023/06/13 07:52:18;;;;;;;7.20;3.90;;;;;;;19.72;56.88;100062.89;105411;1252;61280;-77
2023/06/13 07:54:45;;;;;;;9.00;4.20;;;;;;;19.80;56.56;100064.27;105507;1258;66002;-79
2023/06/13 07:57:13;;;;;;;9.70;4.00;;;;;;;19.89;56.40;100067.95;105764;1256;61244;-75
2023/06/13 08:00:00;;;;;;;7.60;4.10;;;;;;;19.97;56.16;100072.30;105820;1255;64008;-75
2023/06/13 08:02:26;;;;;;;9.20;4.00;;;;;;;19.97;55.81;100076.81;105850;1254;61306;-77
2023/06/13 08:04:54;;;;;;;4.70;3.70;;;;;;;19.94;55.81;100076.50;105749;1253;61258;-76
2023/06/13 08:07:22;;;;;;;8.60;4.10;;;;;;;19.95;55.73;100077.54;105886;1256;66109;-75
2023/06/13 08:09:49;;;;;;;7.70;4.40;;;;;;;19.95;55.81;100077.59;106063;1256;61286;-76
2023/06/13 08:12:16;;;;;;;7.20;4.30;;;;;;;19.96;55.77;100081.38;106476;1250;64087;-73
2023/06/13 08:14:43;;;;;;;6.00;4.30;;;;;;;19.97;55.76;100086.77;106648;1255;61276;-74
2023/06/13 08:17:09;;;;;;;7.80;3.80;;;;;;;19.95;55.83;100087.77;106036;1253;61428;-74
2023/06/13 08:19:38;;;;;;;10.70;4.10;;;;;;;19.93;55.72;100087.33;106650;1256;65879;-73
2023/06/13 08:22:05;;;;;;;8.70;4.00;;;;;;;19.90;55.40;100088.09;106422;1252;61244;-69
2023/06/13 08:24:32;;;;;;;10.40;4.00;;;;;;;19.87;55.39;100089.48;105593;1254;64131;-71
2023/06/13 08:26:59;;;;;;;7.00;4.10;;;;;;;19.85;55.45;100090.54;105935;1253;61222;-72
2023/06/13 08:29:28;;;;;;;8.30;4.00;;;;;;;19.81;55.62;100090.46;105982;1253;61295;-72
2023/06/13 08:31:55;;;;;;;5.80;4.40;;;;;;;19.81;55.78;100089.89;106062;1254;66102;-73
2023/06/13 08:34:26;;;;;;;9.70;4.10;;;;;;;19.84;55.74;100086.69;106014;1253;61302;-72
2023/06/13 08:36:52;;;;;;;9.80;4.00;;;;;;;19.86;55.60;100089.30;105912;1256;63025;-76
2023/06/13 08:39:20;;;;;;;6.00;3.50;;;;;;;19.85;55.66;100087.73;106028;1253;61318;-71
2023/06/13 08:41:49;;;;;;;6.20;3.80;;;;;;;19.87;55.71;100089.86;106186;1253;61337;-73
2023/06/13 08:44:17;;;;;;;8.40;4.20;;;;;;;19.88;55.76;100088.45;105997;1256;67684;-73
2023/06/13 08:46:43;;;;;;;8.70;3.90;;;;;;;19.89;55.88;100086.55;105878;1253;61328;-73
2023/06/13 08:49:11;;;;;;;8.40;4.00;;;;;;;19.91;55.82;100087.69;105986;1255;64875;-71
2023/06/13 08:51:37;;;;;;;7.40;4.10;;;;;;;19.94;55.78;100094.85;106146;1256;61320;-72
2023/06/13 08:54:05;;;;;;;8.00;3.90;;;;;;;19.96;55.78;100098.78;105910;1254;61275;-75
2023/06/13 08:56:40;;;;;;;9.00;4.40;;;;;;;19.97;55.75;100102.54;105841;1254;64853;-76
2023/06/13 08:59:30;;;;;;;7.60;4.10;;;;;;;19.98;55.77;100102.64;105828;1252;61272;-75
2023/06/13 09:01:57;;;;;;;6.90;4.10;;;;;;;19.99;55.77;100107.09;105856;1253;64004;-73
2023/06/13 09:04:27;;;;;;;7.50;3.90;;;;;;;20.00;55.65;100109.73;105807;1253;61319;-76
2023/06/13 09:06:58;;;;;;;9.20;3.90;;;;;;;20.03;55.59;100109.34;105742;1253;61183;-75
2023/06/13 09:09:25;;;;;;;6.80;4.10;;;;;;;20.07;55.58;100105.63;105838;1255;65968;-75
2023/06/13 09:11:52;;;;;;;6.40;3.90;;;;;;;20.10;55.42;100102.79;105855;1253;61250;-76
2023/06/13 09:14:19;;;;;;;9.60;4.10;;;;;;;20.10;55.16;100102.54;105782;1255;64243;-76
2023/06/13 09:16:49;;;;;;;7.60;4.00;;;;;;;20.09;55.20;100102.40;105840;1253;61346;-75
2023/06/13 09:19:16;;;;;;;8.80;4.30;;;;;;;20.09;55.22;100105.45;106044;1255;61235;-77
2023/06/13 09:21:46;;;;;;;5.70;3.80;;;;;;;20.09;55.37;100106.86;105875;1251;64903;-76
2023/06/13 09:24:13;;;;;;;9.50;4.10;;;;;;;20.10;55.55;100105.59;105873;1256;61347;-72
2023/06/13 09:26:40;;;;;;;7.00;4.00;;;;;;;20.11;55.44;100104.64;105997;1251;64120;-75
2023/06/13 09:29:07;;;;;;;12.10;4.30;;;;;;;20.12;55.34;100099.26;105684;1254;61274;-78
2023/06/13 09:32:03;;;;;;;7.90;3.70;;;;;;;20.17;55.50;100097.81;105757;1251;61208;-75
2023/06/13 09:34:29;;;;;;;6.50;4.80;;;;;;;20.20;55.48;100098.67;105809;1254;66162;-81
2023/06/13 09:36:57;;;;;;;9.40;4.70;;;;;;;20.21;55.30;100097.74;105784;1256;61246;-75
2023/06/13 09:39:25;;;;;;;8.10;4.50;;;;;;;20.24;55.31;100094.05;105937;1251;62539;-70
2023/06/13 09:41:56;;;;;;;8.10;4.50;;;;;;;20.25;55.28;100093.48;105959;1256;61136;-72
2023/06/13 09:44:24;;;;;;;7.90;4.30;;;;;;;20.25;55.15;100093.48;105886;1253;61308;-72
2023/06/13 09:46:51;;;;;;;8.00;4.30;;;;;;;20.28;55.24;100093.69;106142;1253;66018;-72
2023/06/13 09:49:18;;;;;;;8.20;4.20;;;;;;;20.33;55.23;100094.30;105870;1253;61334;-69
2023/06/13 09:51:45;;;;;;;12.80;4.90;;;;;;;20.35;54.95;100090.64;105720;1254;64047;-70
2023/06/13 09:54:14;;;;;;;6.90;4.50;;;;;;;20.37;55.03;100088.73;106114;1253;61288;-70
2023/06/13 09:56:42;;;;;;;13.50;5.00;;;;;;;20.39;55.05;100087.10;105770;1253;61240;-69
2023/06/13 09:59:15;;;;;;;10.20;4.80;;;;;;;20.44;55.16;100084.86;105912;1251;64836;-69
2023/06/13 10:01:44;;;;;;;5.60;4.40;;;;;;;20.49;54.97;100088.80;106039;1256;61238;-69
2023/06/13 10:04:10;;;;;;;7.00;4.50;;;;;;;20.52;54.82;100088.06;106292;1251;63964;-71
2023/06/13 10:06:37;;;;;;;6.50;4.50;;;;;;;20.56;54.93;100088.02;106486;1251;61293;-72
2023/06/13 10:09:04;;;;;;;7.50;4.40;;;;;;;20.60;55.08;100086.86;106724;1257;61088;-71
2023/06/13 10:11:34;;;;;;;7.70;4.00;;;;;;;20.64;54.90;100090.23;106152;1256;65942;-71
2023/06/13 10:14:07;;;;;;;11.00;4.10;;;;;;;20.70;54.94;100090.08;105882;1253;61309;-70
2023/06/13 10:16:36;;;;;;;6.80;4.40;;;;;;;20.72;54.69;100087.45;105750;1253;63727;-71
2023/06/13 10:19:04;;;;;;;9.40;4.40;;;;;;;20.74;54.68;100089.73;105790;1251;61234;-77
2023/06/13 10:21:32;;;;;;;7.90;3.90;;;;;;;20.77;54.60;100092.70;105859;1252;61250;-77
2023/06/13 10:24:17;;;;;;;10.50;4.60;;;;;;;20.84;54.40;100090.72;105915;1256;66248;-76
2023/06/13 10:26:45;;;;;;;7.40;3.90;;;;;;;20.94;54.32;100092.20;105917;1251;61306;-75
2023/06/13 10:29:33;;;;;;;6.50;3.80;;;;;;;21.03;54.21;100089.29;105795;1256;64061;-75
2023/06/13 10:32:38;;;;;;;7.30;4.10;;;;;;;21.13;54.27;100091.17;105805;1251;61231;-74
2023/06/13 10:35:04;;;;;;;;;;;;;;;21.24;54.25;100092.11;105821;1258;61297;-85
2023/06/13 10:37:53;;;;;;;13.70;4.00;;;;;;;21.30;54.29;100086.83;105832;1256;66149;-73
2023/06/13 10:40:35;;;;;;;6.80;4.10;;;;;;;21.38;54.15;100086.14;105894;1253;61114;-76
2023/06/13 10:43:12;;;;;;;12.10;4.00;;;;;;;21.50;53.96;100081.61;105842;1253;64077;-73
2023/06/13 10:45:39;;;;;;;12.10;4.00;;;;;;;21.60;53.82;100071.77;105933;1254;61270;-73
2023/06/13 10:48:06;;;;;;;7.50;3.70;;;;;;;21.70;53.55;100068.09;105952;1254;61648;-73
2023/06/13 10:50:40;;;;;;;9.70;4.20;;;;;;;21.82;53.42;100070.86;105798;1257;66087;-73
2023/06/13 10:53:09;;;;;;;15.70;4.30;;;;;;;21.91;52.99;100067.48;105857;1254;61235;-74
2023/06/13 10:55:38;;;;;;;6.80;3.80;;;;;;;21.96;52.65;100064.65;105848;1259;63675;-75
2023/06/13 10:58:13;;;;;;;9.20;3.90;;;;;;;22.02;52.57;100063.96;106019;1253;61234;-74
2023/06/13 11:00:40;;;;;;;8.40;4.20;;;;;;;22.06;52.65;100069.10;105641;1260;61308;-73
2023/06/13 11:03:08;;;;;;;7.10;3.90;;;;;;;22.15;52.42;100072.58;105793;1258;61781;-72
2023/06/13 11:05:49;;;;;;;5.80;3.70;;;;;;;22.21;52.18;100076.77;105694;1258;61323;-73
2023/06/13 11:08:24;;;;;;;8.70;3.60;;;;;;;22.24;51.74;100079.75;105745;1257;63803;-71
2023/06/13 11:10:52;;;;;;;12.50;3.80;;;;;;;22.26;51.67;100077.35;105719;1253;61294;-71
2023/06/13 11:13:25;;;;;;;6.30;3.60;;;;;;;22.31;51.72;100075.95;105995;1257;61276;-74
2023/06/13 11:15:56;;;;;;;8.70;3.70;;;;;;;22.34;51.41;100073.27;105876;1251;66083;-73
2023/06/13 11:18:23;;;;;;;8.20;3.60;;;;;;;22.35;51.45;100069.45;105521;1260;61346;-73
2023/06/13 11:20:57;;;;;;;7.00;3.90;;;;;;;22.36;51.52;100069.66;105576;1258;64068;-74
2023/06/13 11:23:33;;;;;;;9.10;3.50;;;;;;;22.40;51.34;100071.66;105495;1254;61260;-73
2023/06/13 11:25:59;;;;;;;9.80;3.80;;;;;;;22.46;51.10;100074.85;105841;1252;61267;-73